sensor_id;sensor_type;location;lat;lon;timestamp;P1;durP1;ratioP1;P2;durP2;ratioP2
8632;SDS011;4354;49.832;10.746;2022-07-29T00:02:24;4.70;;;2.90;;
8632;SDS011;4354;49.832;10.746;2022-07-29T00:04:52;4.22;;;2.83;;
8632;SDS011;4354;49.832;10.746;2022-07-29T00:07:19;2.88;;;2.67;;
8632;SDS011;4354;49.832;10.746;2022-07-29T00:09:46;3.22;;;2.90;;
8632;SDS011;4354;49.832;10.746;2022-07-29T00:12:17;3.83;;;3.28;;
8632;SDS011;4354;49.832;10.746;2022-07-29T00:14:52;6.25;;;3.30;;
8632;SDS011;4354;49.832;10.746;2022-07-29T00:17:20;5.15;;;3.30;;
8632;SDS011;4354;49.832;10.746;2022-07-29T00:19:47;3.20;;;2.90;;
8632;SDS011;4354;49.832;10.746;2022-07-29T00:22:14;5.15;;;3.20;;
8632;SDS011;4354;49.832;10.746;2022-07-29T00:24:41;6.60;;;3.10;;
8632;SDS011;4354;49.832;10.746;2022-07-29T00:27:08;3.55;;;3.05;;
8632;SDS011;4354;49.832;10.746;2022-07-29T00:29:34;6.03;;;3.10;;
8632;SDS011;4354;49.832;10.746;2022-07-29T00:32:01;3.95;;;3.17;;
8632;SDS011;4354;49.832;10.746;2022-07-29T00:34:28;3.35;;;3.05;;
8632;SDS011;4354;49.832;10.746;2022-07-29T00:37:14;5.80;;;2.80;;
8632;SDS011;4354;49.832;10.746;2022-07-29T00:39:41;7.32;;;3.35;;
8632;SDS011;4354;49.832;10.746;2022-07-29T00:42:08;4.28;;;3.20;;
8632;SDS011;4354;49.832;10.746;2022-07-29T00:44:36;4.90;;;3.60;;
8632;SDS011;4354;49.832;10.746;2022-07-29T00:47:07;4.07;;;3.28;;
8632;SDS011;4354;49.832;10.746;2022-07-29T00:49:35;6.00;;;2.90;;
8632;SDS011;4354;49.832;10.746;2022-07-29T00:52:03;5.05;;;3.28;;
8632;SDS011;4354;49.832;10.746;2022-07-29T00:54:31;4.93;;;3.85;;
8632;SDS011;4354;49.832;10.746;2022-07-29T00:56:59;4.55;;;3.40;;
8632;SDS011;4354;49.832;10.746;2022-07-29T00:59:27;4.80;;;3.00;;
8632;SDS011;4354;49.832;10.746;2022-07-29T01:02:00;7.25;;;3.60;;
8632;SDS011;4354;49.832;10.746;2022-07-29T01:04:28;6.72;;;3.22;;
8632;SDS011;4354;49.832;10.746;2022-07-29T01:06:55;4.65;;;3.65;;
8632;SDS011;4354;49.832;10.746;2022-07-29T01:09:24;4.30;;;3.30;;
8632;SDS011;4354;49.832;10.746;2022-07-29T01:12:12;5.57;;;3.05;;
8632;SDS011;4354;49.832;10.746;2022-07-29T01:14:43;4.55;;;3.10;;
8632;SDS011;4354;49.832;10.746;2022-07-29T01:17:20;4.40;;;3.58;;
8632;SDS011;4354;49.832;10.746;2022-07-29T01:20:03;4.63;;;3.53;;
8632;SDS011;4354;49.832;10.746;2022-07-29T01:22:42;4.35;;;3.25;;
8632;SDS011;4354;49.832;10.746;2022-07-29T01:30:40;7.10;;;3.77;;
8632;SDS011;4354;49.832;10.746;2022-07-29T01:33:11;3.95;;;3.55;;
8632;SDS011;4354;49.832;10.746;2022-07-29T01:36:04;4.78;;;3.78;;
8632;SDS011;4354;49.832;10.746;2022-07-29T01:38:39;4.10;;;3.60;;
8632;SDS011;4354;49.832;10.746;2022-07-29T01:41:09;5.40;;;3.38;;
8632;SDS011;4354;49.832;10.746;2022-07-29T01:46:13;3.70;;;3.30;;
8632;SDS011;4354;49.832;10.746;2022-07-29T01:48:47;5.28;;;3.40;;
8632;SDS011;4354;49.832;10.746;2022-07-29T01:51:32;6.05;;;3.67;;
8632;SDS011;4354;49.832;10.746;2022-07-29T01:56:55;3.55;;;3.25;;
8632;SDS011;4354;49.832;10.746;2022-07-29T01:59:24;7.07;;;3.65;;
8632;SDS011;4354;49.832;10.746;2022-07-29T02:01:53;4.55;;;3.45;;
8632;SDS011;4354;49.832;10.746;2022-07-29T02:04:21;5.63;;;3.20;;
8632;SDS011;4354;49.832;10.746;2022-07-29T02:06:56;4.78;;;3.85;;
8632;SDS011;4354;49.832;10.746;2022-07-29T02:09:26;6.25;;;3.65;;
8632;SDS011;4354;49.832;10.746;2022-07-29T02:11:54;5.03;;;3.50;;
8632;SDS011;4354;49.832;10.746;2022-07-29T02:14:23;5.72;;;3.65;;
8632;SDS011;4354;49.832;10.746;2022-07-29T02:16:53;3.90;;;3.25;;
8632;SDS011;4354;49.832;10.746;2022-07-29T02:19:24;4.60;;;3.60;;
8632;SDS011;4354;49.832;10.746;2022-07-29T02:21:53;5.65;;;3.80;;
8632;SDS011;4354;49.832;10.746;2022-07-29T02:24:22;4.73;;;3.83;;
8632;SDS011;4354;49.832;10.746;2022-07-29T02:26:51;4.80;;;3.90;;
8632;SDS011;4354;49.832;10.746;2022-07-29T02:29:23;4.85;;;3.88;;
8632;SDS011;4354;49.832;10.746;2022-07-29T02:31:52;6.57;;;3.80;;
8632;SDS011;4354;49.832;10.746;2022-07-29T02:34:20;9.57;;;4.27;;
8632;SDS011;4354;49.832;10.746;2022-07-29T02:36:47;5.10;;;4.10;;
8632;SDS011;4354;49.832;10.746;2022-07-29T02:39:15;7.17;;;4.20;;
8632;SDS011;4354;49.832;10.746;2022-07-29T02:44:14;6.50;;;3.63;;
8632;SDS011;4354;49.832;10.746;2022-07-29T02:46:50;4.65;;;3.53;;
8632;SDS011;4354;49.832;10.746;2022-07-29T02:49:25;6.67;;;4.00;;
8632;SDS011;4354;49.832;10.746;2022-07-29T02:52:08;6.33;;;4.13;;
8632;SDS011;4354;49.832;10.746;2022-07-29T02:54:44;9.87;;;4.00;;
8632;SDS011;4354;49.832;10.746;2022-07-29T02:57:27;6.77;;;4.10;;
8632;SDS011;4354;49.832;10.746;2022-07-29T02:59:59;5.03;;;3.83;;
8632;SDS011;4354;49.832;10.746;2022-07-29T03:02:33;5.93;;;3.93;;
8632;SDS011;4354;49.832;10.746;2022-07-29T03:05:03;5.77;;;3.83;;
8632;SDS011;4354;49.832;10.746;2022-07-29T03:07:34;4.70;;;3.80;;
8632;SDS011;4354;49.832;10.746;2022-07-29T03:10:01;4.17;;;3.70;;
8632;SDS011;4354;49.832;10.746;2022-07-29T03:12:29;7.00;;;3.90;;
8632;SDS011;4354;49.832;10.746;2022-07-29T03:14:57;4.57;;;3.80;;
8632;SDS011;4354;49.832;10.746;2022-07-29T03:17:26;6.17;;;4.10;;
8632;SDS011;4354;49.832;10.746;2022-07-29T03:19:53;6.37;;;3.90;;
8632;SDS011;4354;49.832;10.746;2022-07-29T03:22:21;4.30;;;3.90;;
8632;SDS011;4354;49.832;10.746;2022-07-29T03:24:48;4.87;;;4.27;;
8632;SDS011;4354;49.832;10.746;2022-07-29T03:27:15;5.80;;;4.30;;
8632;SDS011;4354;49.832;10.746;2022-07-29T03:29:42;8.93;;;3.90;;
8632;SDS011;4354;49.832;10.746;2022-07-29T03:32:15;6.30;;;4.30;;
8632;SDS011;4354;49.832;10.746;2022-07-29T03:34:49;8.30;;;3.90;;
8632;SDS011;4354;49.832;10.746;2022-07-29T03:37:15;5.00;;;3.90;;
8632;SDS011;4354;49.832;10.746;2022-07-29T03:39:42;5.97;;;4.10;;
8632;SDS011;4354;49.832;10.746;2022-07-29T03:42:10;8.27;;;4.23;;
8632;SDS011;4354;49.832;10.746;2022-07-29T03:44:40;10.23;;;4.00;;
8632;SDS011;4354;49.832;10.746;2022-07-29T03:47:09;5.97;;;4.23;;
8632;SDS011;4354;49.832;10.746;2022-07-29T03:49:39;5.47;;;4.30;;
8632;SDS011;4354;49.832;10.746;2022-07-29T03:52:08;6.67;;;4.00;;
8632;SDS011;4354;49.832;10.746;2022-07-29T03:54:35;7.00;;;4.07;;
8632;SDS011;4354;49.832;10.746;2022-07-29T03:57:02;5.57;;;4.23;;
8632;SDS011;4354;49.832;10.746;2022-07-29T03:59:32;7.40;;;4.50;;
8632;SDS011;4354;49.832;10.746;2022-07-29T04:02:02;7.03;;;4.13;;
8632;SDS011;4354;49.832;10.746;2022-07-29T04:04:34;6.63;;;4.03;;
8632;SDS011;4354;49.832;10.746;2022-07-29T04:07:02;5.73;;;4.10;;
8632;SDS011;4354;49.832;10.746;2022-07-29T04:09:29;6.80;;;4.43;;
8632;SDS011;4354;49.832;10.746;2022-07-29T04:11:56;7.53;;;4.17;;
8632;SDS011;4354;49.832;10.746;2022-07-29T04:14:29;7.80;;;4.10;;
8632;SDS011;4354;49.832;10.746;2022-07-29T04:17:00;6.47;;;4.50;;
8632;SDS011;4354;49.832;10.746;2022-07-29T04:19:28;7.10;;;4.40;;
8632;SDS011;4354;49.832;10.746;2022-07-29T04:21:55;8.37;;;3.90;;
8632;SDS011;4354;49.832;10.746;2022-07-29T04:24:23;8.10;;;4.00;;
8632;SDS011;4354;49.832;10.746;2022-07-29T04:26:49;5.83;;;3.70;;
8632;SDS011;4354;49.832;10.746;2022-07-29T04:29:16;9.37;;;4.47;;
8632;SDS011;4354;49.832;10.746;2022-07-29T04:31:43;5.47;;;4.73;;
8632;SDS011;4354;49.832;10.746;2022-07-29T04:34:10;7.40;;;4.23;;
8632;SDS011;4354;49.832;10.746;2022-07-29T04:36:38;6.80;;;4.33;;
8632;SDS011;4354;49.832;10.746;2022-07-29T04:39:05;6.67;;;4.13;;
8632;SDS011;4354;49.832;10.746;2022-07-29T04:41:32;12.10;;;4.57;;
8632;SDS011;4354;49.832;10.746;2022-07-29T04:43:59;7.60;;;3.97;;
8632;SDS011;4354;49.832;10.746;2022-07-29T04:46:32;10.17;;;4.40;;
8632;SDS011;4354;49.832;10.746;2022-07-29T04:48:59;4.85;;;4.10;;
8632;SDS011;4354;49.832;10.746;2022-07-29T04:51:26;5.25;;;3.88;;
8632;SDS011;4354;49.832;10.746;2022-07-29T04:53:53;5.85;;;4.15;;
8632;SDS011;4354;49.832;10.746;2022-07-29T04:56:20;5.30;;;3.70;;
8632;SDS011;4354;49.832;10.746;2022-07-29T04:58:47;5.22;;;3.55;;
8632;SDS011;4354;49.832;10.746;2022-07-29T05:01:13;7.22;;;4.05;;
8632;SDS011;4354;49.832;10.746;2022-07-29T05:03:40;7.13;;;4.00;;
8632;SDS011;4354;49.832;10.746;2022-07-29T05:06:07;5.45;;;4.13;;
8632;SDS011;4354;49.832;10.746;2022-07-29T05:08:34;14.77;;;4.53;;
8632;SDS011;4354;49.832;10.746;2022-07-29T05:11:01;7.70;;;4.60;;
8632;SDS011;4354;49.832;10.746;2022-07-29T05:13:38;8.23;;;4.60;;
8632;SDS011;4354;49.832;10.746;2022-07-29T05:16:12;6.72;;;5.00;;
8632;SDS011;4354;49.832;10.746;2022-07-29T05:18:39;5.90;;;5.30;;
8632;SDS011;4354;49.832;10.746;2022-07-29T05:21:06;5.25;;;4.70;;
8632;SDS011;4354;49.832;10.746;2022-07-29T05:23:33;9.35;;;4.95;;
8632;SDS011;4354;49.832;10.746;2022-07-29T05:25:59;8.40;;;4.80;;
8632;SDS011;4354;49.832;10.746;2022-07-29T05:28:26;7.55;;;5.07;;
8632;SDS011;4354;49.832;10.746;2022-07-29T05:30:53;6.60;;;5.05;;
8632;SDS011;4354;49.832;10.746;2022-07-29T05:33:20;5.88;;;4.22;;
8632;SDS011;4354;49.832;10.746;2022-07-29T05:36:01;7.60;;;4.38;;
8632;SDS011;4354;49.832;10.746;2022-07-29T05:38:33;9.68;;;4.45;;
8632;SDS011;4354;49.832;10.746;2022-07-29T05:41:01;8.18;;;4.10;;
8632;SDS011;4354;49.832;10.746;2022-07-29T05:43:28;6.20;;;4.63;;
8632;SDS011;4354;49.832;10.746;2022-07-29T05:45:55;6.53;;;5.15;;
8632;SDS011;4354;49.832;10.746;2022-07-29T05:48:22;6.78;;;4.97;;
8632;SDS011;4354;49.832;10.746;2022-07-29T05:50:49;7.32;;;4.97;;
8632;SDS011;4354;49.832;10.746;2022-07-29T05:53:15;6.38;;;4.22;;
8632;SDS011;4354;49.832;10.746;2022-07-29T05:55:46;8.23;;;4.85;;
8632;SDS011;4354;49.832;10.746;2022-07-29T05:58:13;7.35;;;4.90;;
8632;SDS011;4354;49.832;10.746;2022-07-29T06:00:40;7.05;;;4.53;;
8632;SDS011;4354;49.832;10.746;2022-07-29T06:03:07;6.68;;;4.75;;
8632;SDS011;4354;49.832;10.746;2022-07-29T06:05:33;7.82;;;4.80;;
8632;SDS011;4354;49.832;10.746;2022-07-29T06:08:00;5.72;;;4.15;;
8632;SDS011;4354;49.832;10.746;2022-07-29T06:10:27;7.07;;;4.35;;
8632;SDS011;4354;49.832;10.746;2022-07-29T06:12:54;5.28;;;4.07;;
8632;SDS011;4354;49.832;10.746;2022-07-29T06:15:20;9.88;;;4.47;;
8632;SDS011;4354;49.832;10.746;2022-07-29T06:17:47;8.65;;;4.30;;
8632;SDS011;4354;49.832;10.746;2022-07-29T06:20:26;8.50;;;4.22;;
8632;SDS011;4354;49.832;10.746;2022-07-29T06:22:57;9.68;;;4.07;;
8632;SDS011;4354;49.832;10.746;2022-07-29T06:25:24;7.07;;;3.85;;
8632;SDS011;4354;49.832;10.746;2022-07-29T06:27:51;4.47;;;3.80;;
8632;SDS011;4354;49.832;10.746;2022-07-29T06:30:18;5.68;;;3.85;;
8632;SDS011;4354;49.832;10.746;2022-07-29T06:32:45;5.70;;;3.60;;
8632;SDS011;4354;49.832;10.746;2022-07-29T06:35:12;6.70;;;3.60;;
8632;SDS011;4354;49.832;10.746;2022-07-29T06:37:58;7.35;;;3.70;;
8632;SDS011;4354;49.832;10.746;2022-07-29T06:40:25;6.72;;;3.90;;
8632;SDS011;4354;49.832;10.746;2022-07-29T06:43:11;6.15;;;3.20;;
8632;SDS011;4354;49.832;10.746;2022-07-29T06:45:38;5.22;;;3.13;;
8632;SDS011;4354;49.832;10.746;2022-07-29T06:48:07;6.07;;;3.40;;
8632;SDS011;4354;49.832;10.746;2022-07-29T06:50:35;7.35;;;3.28;;
8632;SDS011;4354;49.832;10.746;2022-07-29T06:53:02;3.53;;;3.22;;
8632;SDS011;4354;49.832;10.746;2022-07-29T06:55:29;5.10;;;3.53;;
8632;SDS011;4354;49.832;10.746;2022-07-29T06:57:56;8.27;;;2.70;;
8632;SDS011;4354;49.832;10.746;2022-07-29T07:00:23;5.57;;;3.10;;
8632;SDS011;4354;49.832;10.746;2022-07-29T07:02:50;6.47;;;2.55;;
8632;SDS011;4354;49.832;10.746;2022-07-29T07:05:17;5.22;;;2.42;;
8632;SDS011;4354;49.832;10.746;2022-07-29T07:07:43;5.10;;;2.50;;
8632;SDS011;4354;49.832;10.746;2022-07-29T07:10:10;6.75;;;2.85;;
8632;SDS011;4354;49.832;10.746;2022-07-29T07:12:37;5.88;;;2.80;;
8632;SDS011;4354;49.832;10.746;2022-07-29T07:15:04;4.28;;;2.75;;
8632;SDS011;4354;49.832;10.746;2022-07-29T07:17:31;6.10;;;2.58;;
8632;SDS011;4354;49.832;10.746;2022-07-29T07:19:58;6.63;;;2.67;;
8632;SDS011;4354;49.832;10.746;2022-07-29T07:22:25;6.18;;;2.30;;
8632;SDS011;4354;49.832;10.746;2022-07-29T07:24:51;4.45;;;2.60;;
8632;SDS011;4354;49.832;10.746;2022-07-29T07:27:18;7.72;;;2.10;;
8632;SDS011;4354;49.832;10.746;2022-07-29T07:29:45;6.57;;;2.47;;
8632;SDS011;4354;49.832;10.746;2022-07-29T07:32:11;4.90;;;2.35;;
8632;SDS011;4354;49.832;10.746;2022-07-29T07:34:39;5.50;;;2.33;;
8632;SDS011;4354;49.832;10.746;2022-07-29T07:37:06;4.53;;;2.20;;
8632;SDS011;4354;49.832;10.746;2022-07-29T07:39:33;3.53;;;2.55;;
8632;SDS011;4354;49.832;10.746;2022-07-29T07:41:59;3.88;;;2.20;;
8632;SDS011;4354;49.832;10.746;2022-07-29T07:44:26;3.60;;;1.92;;
8632;SDS011;4354;49.832;10.746;2022-07-29T07:46:53;7.90;;;2.90;;
8632;SDS011;4354;49.832;10.746;2022-07-29T07:49:20;8.77;;;2.35;;
8632;SDS011;4354;49.832;10.746;2022-07-29T07:51:47;3.92;;;2.33;;
8632;SDS011;4354;49.832;10.746;2022-07-29T07:54:16;10.00;;;2.45;;
8632;SDS011;4354;49.832;10.746;2022-07-29T07:56:46;5.75;;;2.20;;
8632;SDS011;4354;49.832;10.746;2022-07-29T07:59:18;7.00;;;2.30;;
8632;SDS011;4354;49.832;10.746;2022-07-29T08:01:45;5.20;;;2.15;;
8632;SDS011;4354;49.832;10.746;2022-07-29T08:04:21;5.32;;;2.33;;
8632;SDS011;4354;49.832;10.746;2022-07-29T08:06:53;6.82;;;2.30;;
8632;SDS011;4354;49.832;10.746;2022-07-29T08:09:21;13.77;;;3.05;;
8632;SDS011;4354;49.832;10.746;2022-07-29T08:11:55;7.18;;;2.50;;
8632;SDS011;4354;49.832;10.746;2022-07-29T08:14:23;4.53;;;2.33;;
8632;SDS011;4354;49.832;10.746;2022-07-29T08:16:51;4.15;;;2.42;;
8632;SDS011;4354;49.832;10.746;2022-07-29T08:19:17;1.98;;;1.83;;
8632;SDS011;4354;49.832;10.746;2022-07-29T08:21:44;4.00;;;2.53;;
8632;SDS011;4354;49.832;10.746;2022-07-29T08:24:11;5.25;;;2.33;;
8632;SDS011;4354;49.832;10.746;2022-07-29T08:26:57;3.50;;;2.30;;
8632;SDS011;4354;49.832;10.746;2022-07-29T08:29:24;3.83;;;2.40;;
8632;SDS011;4354;49.832;10.746;2022-07-29T08:31:51;4.88;;;2.60;;
8632;SDS011;4354;49.832;10.746;2022-07-29T08:34:18;7.15;;;2.65;;
8632;SDS011;4354;49.832;10.746;2022-07-29T08:36:52;5.32;;;2.60;;
8632;SDS011;4354;49.832;10.746;2022-07-29T08:39:19;5.15;;;2.42;;
8632;SDS011;4354;49.832;10.746;2022-07-29T08:41:46;8.00;;;2.40;;
8632;SDS011;4354;49.832;10.746;2022-07-29T08:44:22;2.80;;;2.50;;
8632;SDS011;4354;49.832;10.746;2022-07-29T08:46:56;6.07;;;2.17;;
8632;SDS011;4354;49.832;10.746;2022-07-29T08:49:23;6.32;;;2.75;;
8632;SDS011;4354;49.832;10.746;2022-07-29T08:51:50;7.60;;;2.67;;
8632;SDS011;4354;49.832;10.746;2022-07-29T08:54:20;8.52;;;2.97;;
8632;SDS011;4354;49.832;10.746;2022-07-29T08:56:48;4.60;;;2.70;;
8632;SDS011;4354;49.832;10.746;2022-07-29T08:59:20;5.65;;;2.70;;
8632;SDS011;4354;49.832;10.746;2022-07-29T09:01:51;5.50;;;2.50;;
8632;SDS011;4354;49.832;10.746;2022-07-29T09:04:20;3.20;;;2.45;;
8632;SDS011;4354;49.832;10.746;2022-07-29T09:06:51;4.28;;;2.38;;
8632;SDS011;4354;49.832;10.746;2022-07-29T09:09:19;7.70;;;2.40;;
8632;SDS011;4354;49.832;10.746;2022-07-29T09:11:46;4.97;;;2.88;;
8632;SDS011;4354;49.832;10.746;2022-07-29T09:14:13;8.57;;;2.60;;
8632;SDS011;4354;49.832;10.746;2022-07-29T09:16:47;3.53;;;2.38;;
8632;SDS011;4354;49.832;10.746;2022-07-29T09:19:23;2.55;;;2.30;;
8632;SDS011;4354;49.832;10.746;2022-07-29T09:21:52;5.20;;;2.78;;
8632;SDS011;4354;49.832;10.746;2022-07-29T09:27:08;6.75;;;2.65;;
8632;SDS011;4354;49.832;10.746;2022-07-29T09:30:00;2.85;;;2.20;;
8632;SDS011;4354;49.832;10.746;2022-07-29T09:32:30;4.07;;;2.53;;
8632;SDS011;4354;49.832;10.746;2022-07-29T09:35:16;3.97;;;2.70;;
8632;SDS011;4354;49.832;10.746;2022-07-29T09:37:45;4.25;;;2.70;;
8632;SDS011;4354;49.832;10.746;2022-07-29T09:40:14;9.43;;;2.65;;
8632;SDS011;4354;49.832;10.746;2022-07-29T09:42:49;4.85;;;2.70;;
8632;SDS011;4354;49.832;10.746;2022-07-29T09:45:29;4.35;;;2.50;;
8632;SDS011;4354;49.832;10.746;2022-07-29T09:47:58;5.18;;;2.33;;
8632;SDS011;4354;49.832;10.746;2022-07-29T09:50:39;7.13;;;2.85;;
8632;SDS011;4354;49.832;10.746;2022-07-29T09:53:07;5.60;;;2.75;;
8632;SDS011;4354;49.832;10.746;2022-07-29T09:55:47;3.70;;;2.65;;
8632;SDS011;4354;49.832;10.746;2022-07-29T09:58:20;5.35;;;2.80;;
8632;SDS011;4354;49.832;10.746;2022-07-29T10:00:49;6.57;;;2.80;;
8632;SDS011;4354;49.832;10.746;2022-07-29T10:03:18;7.55;;;2.58;;
8632;SDS011;4354;49.832;10.746;2022-07-29T10:05:48;3.88;;;2.40;;
8632;SDS011;4354;49.832;10.746;2022-07-29T10:08:37;4.05;;;2.70;;
8632;SDS011;4354;49.832;10.746;2022-07-29T10:11:14;2.95;;;2.53;;
8632;SDS011;4354;49.832;10.746;2022-07-29T10:13:43;4.15;;;2.80;;
8632;SDS011;4354;49.832;10.746;2022-07-29T10:16:11;4.57;;;2.38;;
8632;SDS011;4354;49.832;10.746;2022-07-29T10:18:40;6.88;;;2.60;;
8632;SDS011;4354;49.832;10.746;2022-07-29T10:21:08;4.82;;;2.38;;
8632;SDS011;4354;49.832;10.746;2022-07-29T10:23:47;4.97;;;2.70;;
8632;SDS011;4354;49.832;10.746;2022-07-29T10:26:15;5.40;;;2.60;;
8632;SDS011;4354;49.832;10.746;2022-07-29T10:28:43;4.60;;;2.80;;
8632;SDS011;4354;49.832;10.746;2022-07-29T10:31:12;3.47;;;3.03;;
8632;SDS011;4354;49.832;10.746;2022-07-29T10:34:04;4.65;;;2.67;;
8632;SDS011;4354;49.832;10.746;2022-07-29T10:42:21;7.07;;;2.55;;
8632;SDS011;4354;49.832;10.746;2022-07-29T10:44:59;4.13;;;2.67;;
8632;SDS011;4354;49.832;10.746;2022-07-29T10:47:27;5.88;;;2.90;;
8632;SDS011;4354;49.832;10.746;2022-07-29T10:50:04;5.00;;;3.08;;
8632;SDS011;4354;49.832;10.746;2022-07-29T11:00:53;3.80;;;3.10;;
8632;SDS011;4354;49.832;10.746;2022-07-29T11:06:17;5.88;;;3.10;;
8632;SDS011;4354;49.832;10.746;2022-07-29T11:09:17;3.03;;;2.72;;
8632;SDS011;4354;49.832;10.746;2022-07-29T11:11:59;4.63;;;3.10;;
8632;SDS011;4354;49.832;10.746;2022-07-29T11:17:21;5.07;;;3.05;;
8632;SDS011;4354;49.832;10.746;2022-07-29T11:19:49;6.40;;;2.97;;
8632;SDS011;4354;49.832;10.746;2022-07-29T11:22:32;5.00;;;2.90;;
8632;SDS011;4354;49.832;10.746;2022-07-29T11:25:16;3.70;;;2.95;;
8632;SDS011;4354;49.832;10.746;2022-07-29T11:28:17;6.35;;;3.03;;
8632;SDS011;4354;49.832;10.746;2022-07-29T11:30:50;2.72;;;2.38;;
8632;SDS011;4354;49.832;10.746;2022-07-29T11:33:29;5.95;;;3.03;;
8632;SDS011;4354;49.832;10.746;2022-07-29T11:36:16;7.63;;;2.95;;
8632;SDS011;4354;49.832;10.746;2022-07-29T11:38:43;4.85;;;2.65;;
8632;SDS011;4354;49.832;10.746;2022-07-29T11:41:20;3.80;;;2.60;;
8632;SDS011;4354;49.832;10.746;2022-07-29T11:44:08;5.35;;;2.58;;
8632;SDS011;4354;49.832;10.746;2022-07-29T11:46:48;5.38;;;3.08;;
8632;SDS011;4354;49.832;10.746;2022-07-29T11:49:20;7.45;;;3.20;;
8632;SDS011;4354;49.832;10.746;2022-07-29T11:51:58;8.77;;;2.95;;
8632;SDS011;4354;49.832;10.746;2022-07-29T11:54:32;6.53;;;3.03;;
8632;SDS011;4354;49.832;10.746;2022-07-29T11:57:20;5.47;;;3.00;;
8632;SDS011;4354;49.832;10.746;2022-07-29T11:59:47;4.10;;;2.72;;
8632;SDS011;4354;49.832;10.746;2022-07-29T12:02:16;4.20;;;2.95;;
8632;SDS011;4354;49.832;10.746;2022-07-29T12:05:02;5.65;;;2.83;;
8632;SDS011;4354;49.832;10.746;2022-07-29T12:07:36;7.03;;;3.13;;
8632;SDS011;4354;49.832;10.746;2022-07-29T12:10:06;7.57;;;3.38;;
8632;SDS011;4354;49.832;10.746;2022-07-29T12:12:44;4.40;;;3.08;;
8632;SDS011;4354;49.832;10.746;2022-07-29T12:15:18;3.20;;;2.90;;
8632;SDS011;4354;49.832;10.746;2022-07-29T12:18:10;3.83;;;3.20;;
8632;SDS011;4354;49.832;10.746;2022-07-29T12:20:43;4.43;;;3.10;;
8632;SDS011;4354;49.832;10.746;2022-07-29T12:23:11;3.88;;;3.47;;
8632;SDS011;4354;49.832;10.746;2022-07-29T12:25:42;4.53;;;3.25;;
8632;SDS011;4354;49.832;10.746;2022-07-29T12:28:14;4.97;;;3.30;;
8632;SDS011;4354;49.832;10.746;2022-07-29T12:30:53;5.07;;;2.88;;
8632;SDS011;4354;49.832;10.746;2022-07-29T12:33:24;6.30;;;2.97;;
8632;SDS011;4354;49.832;10.746;2022-07-29T12:35:54;4.57;;;3.05;;
8632;SDS011;4354;49.832;10.746;2022-07-29T12:38:36;4.68;;;2.78;;
8632;SDS011;4354;49.832;10.746;2022-07-29T12:41:06;3.60;;;2.97;;
8632;SDS011;4354;49.832;10.746;2022-07-29T12:43:34;4.40;;;2.70;;
8632;SDS011;4354;49.832;10.746;2022-07-29T12:46:22;4.10;;;3.10;;
8632;SDS011;4354;49.832;10.746;2022-07-29T12:48:52;4.97;;;3.03;;
8632;SDS011;4354;49.832;10.746;2022-07-29T12:51:33;3.95;;;2.85;;
8632;SDS011;4354;49.832;10.746;2022-07-29T12:54:05;4.18;;;3.20;;
8632;SDS011;4354;49.832;10.746;2022-07-29T12:56:33;2.70;;;2.50;;
8632;SDS011;4354;49.832;10.746;2022-07-29T12:59:13;4.57;;;2.97;;
8632;SDS011;4354;49.832;10.746;2022-07-29T13:01:45;3.33;;;2.53;;
8632;SDS011;4354;49.832;10.746;2022-07-29T13:04:28;4.78;;;2.33;;
8632;SDS011;4354;49.832;10.746;2022-07-29T13:09:36;3.95;;;3.00;;
8632;SDS011;4354;49.832;10.746;2022-07-29T13:12:08;3.78;;;2.90;;
8632;SDS011;4354;49.832;10.746;2022-07-29T13:14:46;2.72;;;2.50;;
8632;SDS011;4354;49.832;10.746;2022-07-29T13:17:15;4.10;;;2.60;;
8632;SDS011;4354;49.832;10.746;2022-07-29T13:20:04;6.18;;;2.75;;
8632;SDS011;4354;49.832;10.746;2022-07-29T13:22:34;3.40;;;2.75;;
8632;SDS011;4354;49.832;10.746;2022-07-29T13:25:01;2.78;;;2.58;;
8632;SDS011;4354;49.832;10.746;2022-07-29T13:27:30;3.35;;;2.80;;
8632;SDS011;4354;49.832;10.746;2022-07-29T13:30:03;3.97;;;2.90;;
8632;SDS011;4354;49.832;10.746;2022-07-29T13:32:32;7.32;;;2.90;;
8632;SDS011;4354;49.832;10.746;2022-07-29T13:35:04;2.83;;;2.63;;
8632;SDS011;4354;49.832;10.746;2022-07-29T13:37:32;4.00;;;3.05;;
8632;SDS011;4354;49.832;10.746;2022-07-29T13:40:01;5.57;;;2.92;;
8632;SDS011;4354;49.832;10.746;2022-07-29T13:42:29;5.85;;;3.10;;
8632;SDS011;4354;49.832;10.746;2022-07-29T13:44:57;4.85;;;2.80;;
8632;SDS011;4354;49.832;10.746;2022-07-29T13:47:24;5.25;;;3.03;;
8632;SDS011;4354;49.832;10.746;2022-07-29T13:49:59;3.85;;;2.92;;
8632;SDS011;4354;49.832;10.746;2022-07-29T13:52:26;4.05;;;2.53;;
8632;SDS011;4354;49.832;10.746;2022-07-29T13:54:53;4.78;;;3.20;;
8632;SDS011;4354;49.832;10.746;2022-07-29T13:57:20;4.78;;;2.85;;
8632;SDS011;4354;49.832;10.746;2022-07-29T13:59:47;4.30;;;3.53;;
8632;SDS011;4354;49.832;10.746;2022-07-29T14:02:19;4.97;;;3.30;;
8632;SDS011;4354;49.832;10.746;2022-07-29T14:04:51;5.32;;;3.45;;
8632;SDS011;4354;49.832;10.746;2022-07-29T14:07:18;3.78;;;2.58;;
8632;SDS011;4354;49.832;10.746;2022-07-29T14:09:45;3.90;;;2.90;;
8632;SDS011;4354;49.832;10.746;2022-07-29T14:12:12;5.53;;;3.40;;
8632;SDS011;4354;49.832;10.746;2022-07-29T14:14:39;5.43;;;2.95;;
8632;SDS011;4354;49.832;10.746;2022-07-29T14:17:06;3.92;;;3.10;;
8632;SDS011;4354;49.832;10.746;2022-07-29T14:19:33;4.03;;;3.17;;
8632;SDS011;4354;49.832;10.746;2022-07-29T14:22:05;6.95;;;3.13;;
8632;SDS011;4354;49.832;10.746;2022-07-29T14:24:34;7.18;;;2.90;;
8632;SDS011;4354;49.832;10.746;2022-07-29T14:27:02;4.53;;;3.30;;
8632;SDS011;4354;49.832;10.746;2022-07-29T14:29:33;6.32;;;3.28;;
8632;SDS011;4354;49.832;10.746;2022-07-29T14:32:04;7.50;;;3.72;;
8632;SDS011;4354;49.832;10.746;2022-07-29T14:34:32;5.10;;;3.28;;
8632;SDS011;4354;49.832;10.746;2022-07-29T14:36:59;4.95;;;3.22;;
8632;SDS011;4354;49.832;10.746;2022-07-29T14:39:26;7.18;;;3.58;;
8632;SDS011;4354;49.832;10.746;2022-07-29T14:41:57;5.82;;;3.67;;
8632;SDS011;4354;49.832;10.746;2022-07-29T14:44:25;4.82;;;3.50;;
8632;SDS011;4354;49.832;10.746;2022-07-29T14:46:57;5.35;;;3.22;;
8632;SDS011;4354;49.832;10.746;2022-07-29T14:49:28;5.43;;;3.90;;
8632;SDS011;4354;49.832;10.746;2022-07-29T14:51:55;5.55;;;3.53;;
8632;SDS011;4354;49.832;10.746;2022-07-29T14:54:22;5.28;;;3.90;;
8632;SDS011;4354;49.832;10.746;2022-07-29T14:56:49;5.20;;;3.67;;
8632;SDS011;4354;49.832;10.746;2022-07-29T14:59:17;5.88;;;3.80;;
8632;SDS011;4354;49.832;10.746;2022-07-29T15:01:43;6.47;;;3.55;;
8632;SDS011;4354;49.832;10.746;2022-07-29T15:04:10;4.95;;;3.90;;
8632;SDS011;4354;49.832;10.746;2022-07-29T15:06:37;5.97;;;3.50;;
8632;SDS011;4354;49.832;10.746;2022-07-29T15:09:04;9.75;;;3.80;;
8632;SDS011;4354;49.832;10.746;2022-07-29T15:11:30;12.60;;;3.83;;
8632;SDS011;4354;49.832;10.746;2022-07-29T15:14:03;15.20;;;3.95;;
8632;SDS011;4354;49.832;10.746;2022-07-29T15:16:31;10.75;;;3.50;;
8632;SDS011;4354;49.832;10.746;2022-07-29T15:18:59;6.25;;;3.20;;
8632;SDS011;4354;49.832;10.746;2022-07-29T15:21:26;10.02;;;4.07;;
8632;SDS011;4354;49.832;10.746;2022-07-29T15:23:53;7.18;;;3.63;;
8632;SDS011;4354;49.832;10.746;2022-07-29T15:26:19;5.05;;;3.60;;
8632;SDS011;4354;49.832;10.746;2022-07-29T15:28:47;6.82;;;4.60;;
8632;SDS011;4354;49.832;10.746;2022-07-29T15:31:14;11.70;;;4.15;;
8632;SDS011;4354;49.832;10.746;2022-07-29T15:33:41;13.48;;;4.95;;
8632;SDS011;4354;49.832;10.746;2022-07-29T15:36:07;12.77;;;5.55;;
8632;SDS011;4354;49.832;10.746;2022-07-29T15:38:34;11.40;;;5.55;;
8632;SDS011;4354;49.832;10.746;2022-07-29T15:41:07;16.30;;;5.10;;
8632;SDS011;4354;49.832;10.746;2022-07-29T15:43:34;10.85;;;6.20;;
8632;SDS011;4354;49.832;10.746;2022-07-29T15:46:02;15.07;;;6.38;;
8632;SDS011;4354;49.832;10.746;2022-07-29T15:48:50;16.00;;;7.35;;
8632;SDS011;4354;49.832;10.746;2022-07-29T15:51:18;12.23;;;6.97;;
8632;SDS011;4354;49.832;10.746;2022-07-29T15:53:45;9.40;;;6.90;;
8632;SDS011;4354;49.832;10.746;2022-07-29T15:56:19;10.80;;;8.67;;
8632;SDS011;4354;49.832;10.746;2022-07-29T15:59:02;10.98;;;8.30;;
8632;SDS011;4354;49.832;10.746;2022-07-29T16:01:30;15.32;;;8.90;;